Time;durP1;ratioP1;P1;durP2;ratioP2;P2;SDS_P1;SDS_P2;PMS_P1;PMS_P2;Temp;Humidity;BMP_temperature;BMP_pressure;BME280_temperature;BME280_humidity;BME280_pressure;Samples;Min_cycle;Max_cycle;Signal;HPM_P1;HPM_P2
2021/10/28 00:14:34;;;;;;;59.03;30.50;;;;;;;5.49;65.22;101695.56;127389;1101;101492;-78
2021/10/28 00:17:09;;;;;;;62.43;31.67;;;;;;;5.45;64.40;101697.82;127323;1102;103080;-77
2021/10/28 00:19:37;;;;;;;61.10;29.43;;;;;;;5.44;64.19;101699.52;127244;1101;101571;-78
2021/10/28 00:22:06;;;;;;;58.23;28.37;;;;;;;5.43;64.89;101700.30;127371;1101;101675;-77
2021/10/28 00:24:34;;;;;;;56.10;28.40;;;;;;;5.40;64.50;101695.77;127312;1101;101526;-78
2021/10/28 00:27:02;;;;;;;53.77;28.70;;;;;;;5.37;64.68;101695.53;126369;1102;101627;-77
2021/10/28 00:29:30;;;;;;;55.07;28.13;;;;;;;5.37;64.58;101689.43;127351;1101;102118;-77
2021/10/28 00:31:59;;;;;;;56.33;29.33;;;;;;;5.37;65.52;101686.83;127297;1101;101505;-77
2021/10/28 00:34:26;;;;;;;56.03;30.53;;;;;;;5.36;64.34;101693.73;127333;1101;101600;-78
2021/10/28 00:36:55;;;;;;;56.17;29.77;;;;;;;5.35;65.19;101680.61;127208;1101;101475;-77
2021/10/28 00:39:26;;;;;;;58.23;30.30;;;;;;;5.34;65.37;101681.39;127387;1102;101518;-77
2021/10/28 00:41:54;;;;;;;58.13;30.20;;;;;;;5.30;64.79;101685.47;127298;1101;101935;-77
2021/10/28 00:44:22;;;;;;;57.10;31.17;;;;;;;5.27;64.90;101681.73;127320;1101;101366;-78
2021/10/28 00:46:50;;;;;;;56.07;31.20;;;;;;;5.23;64.59;101683.17;127264;1101;101891;-78
2021/10/28 00:49:17;;;;;;;61.27;30.87;;;;;;;5.20;65.28;101676.06;126343;1102;101555;-78
2021/10/28 00:51:45;;;;;;;54.73;29.60;;;;;;;5.18;64.98;101675.02;127357;1101;101514;-76
2021/10/28 00:54:17;;;;;;;57.90;30.10;;;;;;;5.18;65.28;101672.41;127330;1102;101918;-78
2021/10/28 00:56:45;;;;;;;58.57;31.30;;;;;;;5.19;65.26;101669.03;126277;1102;101628;-78
2021/10/28 00:59:16;;;;;;;59.27;31.03;;;;;;;5.24;65.10;101681.50;126342;1102;101625;-77
2021/10/28 01:01:44;;;;;;;63.47;31.93;;;;;;;5.28;65.21;101673.11;126397;1102;101673;-77
2021/10/28 01:04:12;;;;;;;56.93;30.70;;;;;;;5.31;65.16;101679.45;127402;1101;101520;-77
2021/10/28 01:06:41;;;;;;;62.00;32.37;;;;;;;5.30;65.12;101677.66;127333;1100;103066;-77
2021/10/28 01:09:09;;;;;;;57.80;31.17;;;;;;;5.24;65.03;101687.60;127159;1101;101697;-77
2021/10/28 01:11:40;;;;;;;62.77;31.93;;;;;;;5.13;65.23;101683.28;127382;1101;101563;-77
2021/10/28 01:14:09;;;;;;;60.23;30.73;;;;;;;5.03;65.45;101681.64;127371;1101;101501;-78
2021/10/28 01:16:38;;;;;;;52.37;29.20;;;;;;;5.00;65.50;101676.20;127422;1100;101551;-77
2021/10/28 01:19:06;;;;;;;57.60;30.27;;;;;;;4.95;65.17;101683.66;127302;1101;102033;-77
2021/10/28 01:21:34;;;;;;;57.87;30.17;;;;;;;4.92;65.13;101677.32;127304;1101;101811;-78
2021/10/28 01:24:04;;;;;;;60.83;30.63;;;;;;;4.94;65.76;101675.73;127356;1101;101533;-77
2021/10/28 01:26:33;;;;;;;59.80;31.93;;;;;;;4.98;65.17;101678.69;127324;1100;101051;-78
2021/10/28 01:29:06;;;;;;;59.83;32.17;;;;;;;5.03;65.09;101677.37;127177;1100;101528;-78
2021/10/28 01:31:36;;;;;;;65.67;32.23;;;;;;;5.07;65.07;101678.50;127298;1101;101939;-77
2021/10/28 01:34:06;;;;;;;59.17;31.87;;;;;;;5.15;65.82;101677.38;127297;1101;101919;-77
2021/10/28 01:36:36;;;;;;;61.37;31.90;;;;;;;5.19;65.90;101665.53;127313;1101;101534;-77
2021/10/28 01:39:15;;;;;;;61.07;32.37;;;;;;;5.21;65.40;101669.16;127187;1101;101608;-78
2021/10/28 01:41:45;;;;;;;64.63;31.73;;;;;;;5.23;65.58;101670.16;127359;1101;101048;-78
2021/10/28 01:44:15;;;;;;;56.67;30.57;;;;;;;5.24;65.46;101665.89;127374;1101;101929;-77
2021/10/28 01:46:44;;;;;;;56.40;31.00;;;;;;;5.26;65.74;101662.59;127369;1101;101521;-77
2021/10/28 01:49:28;;;;;;;60.27;30.30;;;;;;;5.23;65.58;101670.16;127237;1101;101590;-77
2021/10/28 01:51:58;;;;;;;58.33;30.52;;;;;;;5.26;65.74;101659.98;127305;1101;101948;-77
2021/10/28 01:54:28;;;;;;;55.23;28.73;;;;;;;5.31;65.59;101657.73;127375;1101;101533;-77
2021/10/28 01:56:57;;;;;;;56.10;30.43;;;;;;;5.34;65.40;101663.17;127196;1101;102972;-78
2021/10/28 01:59:25;;;;;;;58.00;31.17;;;;;;;5.33;65.56;101662.27;127144;1101;101607;-78
2021/10/28 02:01:53;;;;;;;59.10;32.53;;;;;;;5.36;65.74;101662.50;127303;1100;101615;-77
2021/10/28 02:04:21;;;;;;;58.80;31.40;;;;;;;5.36;65.15;101662.50;127283;1101;101504;-78
2021/10/28 02:06:49;;;;;;;56.17;30.80;;;;;;;5.35;65.64;101664.99;127258;1101;101637;-78
2021/10/28 02:09:17;;;;;;;61.50;31.57;;;;;;;5.32;65.57;101668.26;127348;1101;103092;-77
2021/10/28 02:11:45;;;;;;;58.47;32.50;;;;;;;5.28;66.19;101671.41;127328;1101;101221;-77
2021/10/28 02:14:14;;;;;;;61.53;31.63;;;;;;;5.25;65.69;101680.69;127365;1101;101066;-78
2021/10/28 02:16:46;;;;;;;58.13;30.03;;;;;;;5.21;65.97;101683.05;127359;1102;101532;-77
2021/10/28 02:19:14;;;;;;;57.80;30.70;;;;;;;5.16;65.78;101684.41;126372;1101;101093;-77
2021/10/28 02:21:42;;;;;;;56.00;29.07;;;;;;;5.14;65.59;101682.47;127327;1101;101934;-77
2021/10/28 02:24:10;;;;;;;56.97;30.33;;;;;;;5.09;65.70;101692.53;127309;1101;101798;-77
2021/10/28 02:26:38;;;;;;;63.53;30.90;;;;;;;5.01;65.87;101698.84;127338;1101;101689;-77
2021/10/28 02:29:06;;;;;;;63.40;30.77;;;;;;;4.95;66.33;101693.17;127342;1101;101487;-78
2021/10/28 02:31:35;;;;;;;58.67;30.93;;;;;;;4.89;65.54;101713.50;127227;1101;101363;-77
2021/10/28 02:34:03;;;;;;;56.83;30.17;;;;;;;4.80;66.19;101706.80;127321;1101;102997;-77
2021/10/28 02:36:31;;;;;;;53.03;29.67;;;;;;;4.72;66.45;101701.77;127352;1101;101979;-77
2021/10/28 02:38:59;;;;;;;57.13;30.10;;;;;;;4.62;66.02;101707.95;127355;1101;101615;-77
2021/10/28 02:41:27;;;;;;;62.97;30.70;;;;;;;4.54;66.02;101706.45;127165;1101;101851;-77
2021/10/28 02:43:56;;;;;;;60.77;31.13;;;;;;;4.49;66.44;101711.28;127344;1101;101515;-77
2021/10/28 02:46:24;;;;;;;53.33;29.27;;;;;;;4.50;66.20;101714.00;127332;1101;103117;-77
2021/10/28 02:48:52;;;;;;;55.17;29.93;;;;;;;4.48;66.56;101712.05;127312;1101;101545;-78
2021/10/28 02:51:20;;;;;;;56.20;29.57;;;;;;;4.44;67.16;101715.19;127208;1101;101292;-77
2021/10/28 02:53:48;;;;;;;51.97;27.93;;;;;;;4.38;66.56;101710.42;127351;1101;101525;-77
2021/10/28 02:56:17;;;;;;;53.73;28.17;;;;;;;4.36;66.49;101709.38;127369;1101;101916;-78
2021/10/28 02:58:45;;;;;;;60.97;29.90;;;;;;;4.37;66.95;101711.20;127394;1101;101991;-78
2021/10/28 03:01:13;;;;;;;57.70;30.13;;;;;;;4.39;66.92;101707.02;127216;1101;101626;-79
2021/10/28 03:03:41;;;;;;;54.43;29.67;;;;;;;4.39;66.46;101714.81;127328;1101;101577;-76
2021/10/28 03:06:09;;;;;;;53.20;28.63;;;;;;;4.39;67.07;101711.32;127337;1100;101610;-77
2021/10/28 03:08:37;;;;;;;55.97;28.13;;;;;;;4.34;66.89;101712.66;127310;1101;101334;-77
2021/10/28 03:11:08;;;;;;;56.33;29.00;;;;;;;4.29;66.91;101710.58;127213;1100;103035;-77
2021/10/28 03:13:37;;;;;;;50.80;27.23;;;;;;;4.27;66.84;101708.63;127267;1101;101526;-77
2021/10/28 03:16:16;;;;;;;54.30;29.20;;;;;;;4.26;67.52;101712.94;127338;1101;101638;-76
2021/10/28 03:26:50;;;;;;;54.20;28.23;;;;;;;4.21;67.32;101709.06;127324;1101;101909;-76
2021/10/28 03:29:20;;;;;;;53.20;27.23;;;;;;;4.21;67.43;101713.38;127303;1101;101573;-77
2021/10/28 03:31:50;;;;;;;57.00;27.97;;;;;;;4.20;67.47;101712.44;127185;1101;101486;-77
2021/10/28 03:34:18;;;;;;;50.50;26.43;;;;;;;4.19;67.29;101720.11;127348;1101;101387;-76
2021/10/28 03:36:48;;;;;;;52.07;27.23;;;;;;;4.17;67.11;101719.98;127296;1101;101852;-77
2021/10/28 03:39:32;;;;;;;49.23;26.57;;;;;;;4.16;67.52;101718.19;127323;1101;101886;-76
2021/10/28 03:42:37;;;;;;;49.33;27.40;;;;;;;4.14;67.25;101711.94;127254;1101;102084;-76
2021/10/28 03:48:09;;;;;;;49.07;25.20;;;;;;;4.13;67.70;101720.55;126515;1101;101510;-76
2021/10/28 03:51:01;;;;;;;54.40;27.50;;;;;;;4.16;67.71;101719.86;127313;1102;103070;-76
2021/10/28 03:53:59;;;;;;;51.40;27.07;;;;;;;4.19;67.73;101725.30;127219;1101;108101;-77
2021/10/28 04:07:32;;;;;;;49.60;27.17;;;;;;;3.98;68.18;101740.07;127362;1101;101769;-79
2021/10/28 04:18:18;;;;;;;50.23;26.80;;;;;;;3.78;68.35;101757.49;127344;1101;101940;-78
2021/10/28 04:28:56;;;;;;;51.03;26.50;;;;;;;3.68;69.16;101752.34;127304;1100;101575;-77
2021/10/28 04:31:25;;;;;;;55.20;27.43;;;;;;;3.72;68.56;101752.69;126282;1102;103876;-77
2021/10/28 04:33:53;;;;;;;49.37;27.03;;;;;;;3.81;68.61;101746.47;127008;1101;101616;-78
2021/10/28 04:36:23;;;;;;;54.63;29.17;;;;;;;3.88;68.90;101751.37;127271;1101;101563;-77
2021/10/28 04:38:51;;;;;;;56.77;28.73;;;;;;;4.02;68.12;101747.31;127125;1101;101767;-78
2021/10/28 04:41:19;;;;;;;55.47;28.17;;;;;;;4.11;69.05;101758.45;126383;1102;101626;-77
2021/10/28 04:43:47;;;;;;;56.57;28.10;;;;;;;4.19;68.92;101751.28;127094;1101;102165;-78
2021/10/28 04:46:15;;;;;;;64.23;27.83;;;;;;;4.25;68.85;101752.68;127338;1101;101558;-77
2021/10/28 04:48:43;;;;;;;55.40;28.27;;;;;;;4.29;68.95;101754.76;127047;1101;101626;-77
2021/10/28 04:51:11;;;;;;;54.63;28.80;;;;;;;4.37;69.03;101742.38;127026;1102;101097;-77
2021/10/28 04:53:39;;;;;;;57.17;29.47;;;;;;;4.41;69.09;101739.26;126993;1101;101524;-77
2021/10/28 04:56:07;;;;;;;57.27;29.70;;;;;;;4.45;68.38;101753.40;127175;1101;102032;-78
2021/10/28 04:58:35;;;;;;;62.20;31.80;;;;;;;4.46;68.32;101743.13;126953;1101;101799;-78
2021/10/28 05:01:03;;;;;;;66.23;31.80;;;;;;;4.49;69.05;101740.77;127167;1101;101633;-78
2021/10/28 05:03:31;;;;;;;71.57;30.43;;;;;;;4.53;68.33;101734.11;126321;1102;101414;-78
2021/10/28 05:05:59;;;;;;;57.60;29.37;;;;;;;4.58;68.33;101740.61;126914;1101;101586;-78
2021/10/28 05:08:27;;;;;;;65.73;29.57;;;;;;;4.60;68.24;101736.43;126913;1101;101934;-78
2021/10/28 05:10:55;;;;;;;53.53;28.13;;;;;;;4.64;68.71;101740.17;126935;1102;101246;-77
2021/10/28 05:13:22;;;;;;;56.07;28.80;;;;;;;4.69;68.61;101744.06;126800;1101;101619;-77
2021/10/28 05:15:52;;;;;;;53.23;28.07;;;;;;;4.67;68.47;101748.22;127135;1101;101537;-78
2021/10/28 05:18:23;;;;;;;54.77;29.13;;;;;;;4.59;68.68;101752.80;126305;1102;101688;-78
2021/10/28 05:20:51;;;;;;;53.37;28.13;;;;;;;4.53;68.49;101761.81;126747;1101;101978;-78
2021/10/28 05:23:22;;;;;;;58.33;28.70;;;;;;;4.56;68.16;101755.16;126666;1102;101870;-77
2021/10/28 05:25:50;;;;;;;60.27;31.00;;;;;;;4.63;68.72;101761.78;127185;1101;101677;-77
2021/10/28 05:28:18;;;;;;;58.20;29.10;;;;;;;4.73;68.29;101769.50;127096;1101;101581;-77
2021/10/28 05:30:46;;;;;;;59.40;30.77;;;;;;;4.78;68.14;101770.77;126978;1102;101633;-77
2021/10/28 05:33:14;;;;;;;63.93;31.37;;;;;;;4.82;68.56;101778.03;127028;1101;101977;-77
2021/10/28 05:35:42;;;;;;;64.03;32.53;;;;;;;4.88;68.25;101787.09;126905;1102;107056;-77
2021/10/28 05:38:16;;;;;;;62.47;32.13;;;;;;;4.83;68.23;101792.87;126329;1102;101715;-76
2021/10/28 05:40:49;;;;;;;66.37;33.37;;;;;;;4.79;68.26;101795.10;127075;1101;101644;-77
2021/10/28 05:43:20;;;;;;;61.10;30.60;;;;;;;4.74;68.25;101793.84;126855;1101;101587;-77
2021/10/28 05:45:52;;;;;;;62.00;31.07;;;;;;;4.68;68.43;101799.44;126782;1102;101928;-76
2021/10/28 05:48:22;;;;;;;60.43;30.37;;;;;;;4.65;67.91;101800.09;126293;1102;101465;-78
2021/10/28 05:50:52;;;;;;;56.17;29.93;;;;;;;4.66;68.37;101798.42;126284;1102;101765;-77
2021/10/28 05:53:25;;;;;;;53.33;28.90;;;;;;;4.66;68.33;101799.31;127109;1101;101717;-77
2021/10/28 05:55:56;;;;;;;53.90;28.40;;;;;;;4.67;68.38;101808.02;126281;1103;102299;-77
2021/10/28 05:58:27;;;;;;;57.67;30.60;;;;;;;4.70;68.41;101809.97;126355;1102;102269;-78
2021/10/28 06:00:59;;;;;;;61.80;27.80;;;;;;;4.74;68.90;101815.53;126883;1102;101776;-77
2021/10/28 06:03:36;;;;;;;55.20;28.40;;;;;;;4.77;68.43;101820.05;126846;1102;101530;-77
2021/10/28 06:06:08;;;;;;;60.90;30.23;;;;;;;4.78;68.46;101820.17;126414;1101;101887;-78
2021/10/28 06:08:40;;;;;;;55.87;28.77;;;;;;;4.81;68.99;101828.22;126337;1102;101441;-78
2021/10/28 06:11:10;;;;;;;59.23;29.27;;;;;;;4.88;68.64;101821.84;126302;1102;103072;-78
2021/10/28 06:13:45;;;;;;;60.37;30.77;;;;;;;4.97;68.61;101817.38;126286;1102;101832;-78
2021/10/28 06:16:15;;;;;;;55.05;28.62;;;;;;;5.04;68.30;101818.76;126288;1102;102232;-79
2021/10/28 06:18:49;;;;;;;59.10;29.43;;;;;;;5.12;68.81;101825.46;126287;1102;101718;-78
2021/10/28 06:21:25;;;;;;;51.20;27.23;;;;;;;5.18;69.11;101830.25;126353;1102;101846;-78
2021/10/28 06:23:58;;;;;;;53.20;28.03;;;;;;;5.27;68.85;101825.77;126327;1102;103974;-77
2021/10/28 06:26:31;;;;;;;53.80;28.27;;;;;;;5.38;68.38;101821.41;126612;1101;101561;-79
2021/10/28 06:29:00;;;;;;;57.30;29.53;;;;;;;5.51;68.71;101818.94;126369;1102;101639;-78
2021/10/28 06:31:35;;;;;;;53.70;28.90;;;;;;;5.66;68.62;101803.60;126935;1102;102343;-78
2021/10/28 06:34:09;;;;;;;55.57;28.77;;;;;;;5.86;68.51;101812.00;126356;1102;101831;-77
2021/10/28 06:36:44;;;;;;;54.83;27.90;;;;;;;6.02;68.78;101798.49;126780;1101;101902;-78
2021/10/28 06:39:15;;;;;;;55.43;27.55;;;;;;;6.15;68.66;101805.52;126306;1102;102029;-77
2021/10/28 06:41:46;;;;;;;57.70;28.67;;;;;;;6.24;69.02;101803.59;126580;1102;101624;-77
2021/10/28 06:44:19;;;;;;;52.83;30.13;;;;;;;6.31;68.25;101803.27;126327;1102;101691;-78
2021/10/28 06:46:50;;;;;;;54.40;28.50;;;;;;;6.36;68.74;101801.89;126454;1101;101728;-77
2021/10/28 06:49:33;;;;;;;53.47;28.40;;;;;;;6.43;68.72;101809.34;126330;1102;103549;-77
2021/10/28 06:52:13;;;;;;;51.93;28.63;;;;;;;6.53;68.30;101799.59;126297;1101;101456;-77
2021/10/28 06:54:43;;;;;;;49.23;25.93;;;;;;;6.66;68.86;101804.92;126384;1102;101816;-78
2021/10/28 06:57:31;;;;;;;49.93;27.47;;;;;;;6.75;68.62;101795.14;126317;1101;112050;-76
2021/10/28 07:02:48;;;;;;;54.70;28.10;;;;;;;7.00;68.65;101795.19;126333;1102;101944;-78
2021/10/28 07:05:18;;;;;;;52.13;27.43;;;;;;;7.08;68.74;101793.12;127127;1101;101702;-79
2021/10/28 07:07:48;;;;;;;56.60;29.47;;;;;;;7.14;68.80;101793.55;126896;1102;101628;-76
2021/10/28 07:10:23;;;;;;;54.13;28.33;;;;;;;7.22;68.99;101790.58;126802;1101;101324;-78
2021/10/28 07:12:58;;;;;;;55.97;28.77;;;;;;;7.30;68.51;101786.79;126351;1102;101180;-78
2021/10/28 07:15:32;;;;;;;57.03;28.87;;;;;;;7.40;68.83;101789.22;126294;1102;103605;-77
2021/10/28 07:18:10;;;;;;;49.53;26.77;;;;;;;7.53;68.40;101789.27;127003;1101;101724;-78
2021/10/28 07:29:54;;;;;;;59.15;28.52;;;;;;;8.03;68.39;101789.98;126801;1100;101966;-78
2021/10/28 08:13:57;;;;;;;59.97;30.20;;;;;;;10.06;66.76;101758.06;126283;1105;101879;-78
2021/10/28 08:19:25;;;;;;;50.00;27.50;;;;;;;10.40;67.25;101751.27;127334;1101;112261;-80
2021/10/28 08:22:02;;;;;;;58.63;30.27;;;;;;;10.56;66.60;101745.15;126857;1101;101714;-79
2021/10/28 08:30:02;;;;;;;69.77;35.50;;;;;;;10.92;66.49;101734.85;127250;1101;101172;-78
2021/10/28 08:32:34;;;;;;;60.10;30.53;;;;;;;11.06;66.42;101739.11;127213;1101;101852;-78
2021/10/28 08:35:09;;;;;;;55.70;30.50;;;;;;;11.21;66.09;101740.78;127295;1101;101517;-78
2021/10/28 08:37:46;;;;;;;56.73;30.53;;;;;;;11.32;65.96;101737.88;127161;1101;102825;-79
2021/10/28 08:40:17;;;;;;;60.17;30.60;;;;;;;11.45;65.80;101739.44;126309;1102;101901;-78
2021/10/28 08:42:48;;;;;;;55.67;29.40;;;;;;;11.61;65.87;101730.61;127111;1101;101094;-79
2021/10/28 08:45:21;;;;;;;47.53;26.83;;;;;;;11.77;65.57;101731.39;127103;1101;101593;-78
2021/10/28 08:47:52;;;;;;;47.97;26.53;;;;;;;11.91;65.72;101730.34;127074;1101;101515;-79
2021/10/28 08:50:33;;;;;;;58.47;28.03;;;;;;;12.07;65.47;101725.88;127142;1101;102744;-78
2021/10/28 08:55:51;;;;;;;47.03;25.90;;;;;;;12.38;65.17;101723.00;126331;1102;101315;-78
2021/10/28 09:24:33;;;;;;;49.93;23.70;;;;;;;13.40;62.77;101712.76;126944;1101;101606;-79
2021/10/28 09:27:11;;;;;;;48.07;23.73;;;;;;;13.53;62.65;101713.30;127092;1101;101644;-78
2021/10/28 09:30:25;;;;;;;41.33;22.23;;;;;;;13.64;62.55;101712.89;126698;1101;101596;-77
2021/10/28 09:33:10;;;;;;;42.87;21.73;;;;;;;13.79;61.51;101707.38;126464;1102;103032;-78
2021/10/28 09:36:09;;;;;;;38.70;19.17;;;;;;;13.90;61.33;101707.83;126909;1101;101811;-78
2021/10/28 09:45:04;;;;;;;36.83;18.30;;;;;;;14.16;59.48;101705.33;126322;1105;101993;-78
2021/10/28 09:47:43;;;;;;;41.13;17.97;;;;;;;14.21;59.89;101693.24;126261;1105;102638;-80
2021/10/28 09:50:23;;;;;;;36.40;16.93;;;;;;;14.29;59.95;101686.52;126186;1105;102026;-78
2021/10/28 09:53:08;;;;;;;35.73;17.67;;;;;;;14.41;59.85;101683.44;126284;1105;101779;-77
2021/10/28 09:59:07;;;;;;;35.47;16.43;;;;;;;14.62;58.78;101677.23;125967;1105;101266;-80
2021/10/28 10:01:51;;;;;;;35.20;15.73;;;;;;;14.70;58.86;101676.66;126276;1105;101978;-78
2021/10/28 10:04:23;;;;;;;30.07;13.30;;;;;;;14.77;58.14;101667.22;126256;1105;101577;-79
2021/10/28 10:07:23;;;;;;;27.90;14.37;;;;;;;14.83;57.61;101663.91;125975;1105;101794;-81
2021/10/28 10:09:54;;;;;;;30.90;13.77;;;;;;;14.89;56.97;101656.21;125948;1105;102125;-78
2021/10/28 10:12:27;;;;;;;27.43;10.97;;;;;;;14.95;57.03;101656.44;126003;1105;101812;-78
2021/10/28 10:15:02;;;;;;;24.07;10.47;;;;;;;15.03;56.10;101659.36;126329;1105;102096;-78
2021/10/28 10:17:33;;;;;;;28.57;10.73;;;;;;;15.09;56.13;101651.65;126240;1105;101755;-77
2021/10/28 10:20:08;;;;;;;26.77;10.27;;;;;;;15.20;56.97;101654.67;126289;1105;102102;-78
2021/10/28 10:22:48;;;;;;;23.00;10.30;;;;;;;15.27;55.76;101656.70;126277;1105;102095;-79
2021/10/28 10:25:46;;;;;;;21.07;9.10;;;;;;;15.30;54.68;101642.66;126283;1105;101765;-77
2021/10/28 11:27:07;;;;;;;18.87;8.77;;;;;;;15.84;51.15;101573.94;126497;1101;102037;-80
2021/10/28 12:44:14;;;;;;;19.07;8.50;;;;;;;16.14;46.61;101525.41;127066;1101;101658;-78
2021/10/28 12:47:12;;;;;;;21.33;8.40;;;;;;;16.13;46.72;101527.17;127073;1101;101626;-79
2021/10/28 12:52:42;;;;;;;19.10;8.60;;;;;;;16.15;46.21;101519.27;126329;1102;101549;-78
2021/10/28 12:55:40;;;;;;;22.93;9.40;;;;;;;16.12;46.29;101517.42;126323;1102;101704;-78
2021/10/28 13:49:59;;;;;;;22.63;10.87;;;;;;;15.90;46.00;101501.78;126900;1101;101735;-78
2021/10/28 13:52:46;;;;;;;22.40;10.23;;;;;;;15.86;46.31;101495.47;126342;1102;102022;-80
2021/10/28 13:55:26;;;;;;;21.80;10.00;;;;;;;15.83;46.15;101499.78;126304;1102;101714;-78
2021/10/28 13:58:11;;;;;;;24.33;9.93;;;;;;;15.81;46.08;101497.98;127113;1101;102066;-78
2021/10/28 15:01:17;;;;;;;29.73;12.40;;;;;;;14.46;47.21;101510.25;126341;1102;101810;-79
2021/10/28 15:28:35;;;;;;;30.60;14.63;;;;;;;13.63;47.36;101526.50;126907;1100;101604;-80
2021/10/28 15:36:39;;;;;;;37.20;17.80;;;;;;;13.41;47.97;101531.73;126393;1102;101797;-80
2021/10/28 15:39:20;;;;;;;46.10;18.67;;;;;;;13.33;48.22;101543.68;126868;1101;101855;-80
2021/10/28 16:01:15;;;;;;;47.33;23.37;;;;;;;12.95;48.47;101539.50;126338;1102;103139;-80
2021/10/28 16:22:44;;;;;;;73.50;35.97;;;;;;;12.63;49.08;101556.53;126305;1102;101735;-79
2021/10/28 16:25:17;;;;;;;75.50;40.07;;;;;;;12.59;49.50;101560.77;126956;1101;101080;-80
2021/10/28 16:27:52;;;;;;;76.50;36.60;;;;;;;12.55;49.42;101564.09;126343;1101;103594;-79
2021/10/28 16:30:24;;;;;;;72.40;36.67;;;;;;;12.50;49.55;101559.48;126256;1102;101764;-80
2021/10/28 16:32:56;;;;;;;69.63;39.23;;;;;;;12.45;49.60;101560.97;127162;1101;101545;-79
2021/10/28 16:35:27;;;;;;;80.00;39.93;;;;;;;12.38;49.87;101562.44;127281;1101;101591;-79
2021/10/28 16:37:58;;;;;;;74.77;38.20;;;;;;;12.32;50.34;101556.90;126340;1102;101649;-80
2021/10/28 16:40:28;;;;;;;81.80;41.40;;;;;;;12.27;49.81;101563.69;126328;1102;103395;-80
2021/10/28 16:43:01;;;;;;;80.37;40.97;;;;;;;12.22;49.96;101559.11;126317;1102;101619;-79
2021/10/28 16:45:32;;;;;;;83.33;40.88;;;;;;;12.19;50.08;101568.60;127361;1101;101593;-79
2021/10/28 16:48:01;;;;;;;82.13;41.53;;;;;;;12.14;50.33;101556.94;127347;1101;101603;-79
2021/10/28 16:50:29;;;;;;;78.23;40.97;;;;;;;12.10;50.14;101553.28;126355;1102;101117;-79
2021/10/28 16:52:57;;;;;;;82.17;41.13;;;;;;;12.06;50.28;101551.36;127333;1101;102892;-80
2021/10/28 16:55:25;;;;;;;77.80;42.10;;;;;;;12.01;50.07;101553.77;126316;1102;101591;-80
2021/10/28 16:57:53;;;;;;;82.03;43.33;;;;;;;11.99;50.42;101559.78;126336;1102;101645;-80
2021/10/28 17:00:27;;;;;;;82.17;42.97;;;;;;;11.97;50.52;101556.19;127112;1101;101658;-80
2021/10/28 17:02:55;;;;;;;75.57;41.73;;;;;;;11.93;50.55;101560.38;127339;1101;101635;-78
2021/10/28 17:05:24;;;;;;;83.43;42.77;;;;;;;11.90;50.81;101567.20;127283;1101;102585;-80
2021/10/28 17:07:52;;;;;;;81.33;42.63;;;;;;;11.84;50.96;101563.46;127072;1100;101759;-80
2021/10/28 17:10:20;;;;;;;78.03;41.10;;;;;;;11.80;50.85;101557.98;127053;1101;101547;-80
2021/10/28 17:12:48;;;;;;;74.80;41.17;;;;;;;11.75;51.08;101560.39;127261;1101;101094;-80
2021/10/28 17:15:15;;;;;;;77.53;40.87;;;;;;;11.71;51.04;101563.69;127328;1101;101549;-78
2021/10/28 17:17:44;;;;;;;85.23;41.27;;;;;;;11.67;51.07;101557.39;127401;1101;101985;-78
2021/10/28 17:20:12;;;;;;;78.40;41.17;;;;;;;11.66;51.10;101562.58;126290;1102;101747;-78
2021/10/28 17:22:41;;;;;;;77.63;40.97;;;;;;;11.63;51.40;101567.69;126354;1101;102670;-79
2021/10/28 17:25:17;;;;;;;77.73;41.80;;;;;;;11.60;51.31;101559.66;127354;1101;101605;-79
2021/10/28 17:27:45;;;;;;;79.43;42.60;;;;;;;11.56;51.41;101566.50;127345;1100;101039;-78
2021/10/28 17:30:15;;;;;;;81.73;41.90;;;;;;;11.51;51.70;101568.91;127179;1101;101924;-80
2021/10/28 17:32:44;;;;;;;76.83;41.63;;;;;;;11.47;51.68;101572.20;127320;1101;101771;-79
2021/10/28 17:35:14;;;;;;;84.03;45.50;;;;;;;11.45;52.00;101570.31;126348;1102;101671;-78
2021/10/28 17:37:45;;;;;;;87.53;46.40;;;;;;;11.42;51.77;101576.34;126365;1102;101660;-78
2021/10/28 17:40:14;;;;;;;88.30;46.53;;;;;;;11.39;51.64;101573.55;126344;1102;101626;-79
2021/10/28 17:42:44;;;;;;;85.13;45.20;;;;;;;11.38;52.06;101582.25;126306;1102;102915;-80
2021/10/28 17:45:14;;;;;;;81.97;44.80;;;;;;;11.35;52.00;101592.61;127377;1100;101531;-79
2021/10/28 17:47:46;;;;;;;85.43;44.33;;;;;;;11.31;51.79;101588.94;126312;1102;101626;-79
2021/10/28 17:50:15;;;;;;;84.10;46.80;;;;;;;11.29;52.31;101590.56;126296;1102;101989;-79
2021/10/28 17:52:50;;;;;;;88.80;45.93;;;;;;;11.26;52.26;101589.52;126355;1104;101549;-80
2021/10/28 17:55:23;;;;;;;84.05;47.08;;;;;;;11.21;52.16;101586.66;127416;1101;103111;-79
2021/10/28 17:57:54;;;;;;;86.80;46.27;;;;;;;11.18;52.40;101582.98;127268;1100;101788;-79
2021/10/28 18:00:25;;;;;;;87.37;45.97;;;;;;;11.13;52.25;101578.39;127301;1101;101622;-79
2021/10/28 18:02:56;;;;;;;86.30;45.90;;;;;;;11.11;52.21;101587.01;127329;1101;101975;-80
2021/10/28 18:05:26;;;;;;;86.67;46.00;;;;;;;11.07;52.64;101588.59;127313;1100;101577;-79
2021/10/28 18:07:58;;;;;;;84.17;45.37;;;;;;;11.03;53.00;101594.53;127347;1102;101910;-79
2021/10/28 18:10:30;;;;;;;87.47;48.07;;;;;;;10.97;52.67;101595.10;126272;1102;101767;-79
2021/10/28 18:13:00;;;;;;;92.20;47.63;;;;;;;10.93;52.84;101590.50;127276;1101;101812;-80
2021/10/28 18:15:31;;;;;;;85.40;46.23;;;;;;;10.91;52.62;101591.27;127362;1101;101877;-80
2021/10/28 18:18:02;;;;;;;88.93;46.83;;;;;;;10.90;53.05;101590.34;127353;1101;101559;-79
2021/10/28 18:20:30;;;;;;;87.53;45.93;;;;;;;10.87;52.59;101592.81;127408;1101;101972;-79
2021/10/28 18:22:58;;;;;;;87.13;46.87;;;;;;;10.84;52.73;101600.52;127151;1101;101362;-79
2021/10/28 18:25:26;;;;;;;86.13;47.00;;;;;;;10.80;53.35;101601.20;127341;1100;101593;-79
2021/10/28 18:27:56;;;;;;;84.87;46.13;;;;;;;10.76;52.94;101600.13;127349;1101;101601;-79
2021/10/28 18:30:28;;;;;;;81.80;45.20;;;;;;;10.74;53.21;101600.89;126363;1102;101045;-79
2021/10/28 18:32:56;;;;;;;86.03;46.07;;;;;;;10.71;53.41;101604.24;127204;1101;101908;-79
2021/10/28 18:35:23;;;;;;;85.97;43.50;;;;;;;10.69;53.37;101611.14;126335;1102;101539;-79
2021/10/28 18:37:51;;;;;;;82.33;45.30;;;;;;;10.66;53.36;101608.36;127329;1100;101600;-79
2021/10/28 18:40:19;;;;;;;85.27;45.20;;;;;;;10.63;53.32;101605.56;127423;1101;101869;-79
2021/10/28 18:42:49;;;;;;;89.10;47.60;;;;;;;10.63;53.66;101612.52;127156;1101;101596;-79
2021/10/28 18:45:17;;;;;;;92.87;47.30;;;;;;;10.59;53.70;101616.71;127366;1101;102937;-78
2021/10/28 18:47:45;;;;;;;84.93;44.70;;;;;;;10.56;53.89;101616.55;127354;1101;101596;-79
2021/10/28 18:50:13;;;;;;;84.17;44.60;;;;;;;10.56;53.85;101619.17;127358;1102;101576;-79
2021/10/28 18:52:41;;;;;;;91.07;44.77;;;;;;;10.56;54.13;101613.92;127163;1101;101519;-79
2021/10/28 18:55:10;;;;;;;79.97;43.43;;;;;;;10.58;54.26;101614.89;127291;1101;102011;-80
2021/10/28 18:57:40;;;;;;;84.07;44.83;;;;;;;10.57;54.41;101613.11;126299;1105;102695;-79
2021/10/28 19:00:12;;;;;;;84.37;44.47;;;;;;;10.57;54.39;101615.73;126330;1102;101612;-79
2021/10/28 19:02:44;;;;;;;83.93;46.27;;;;;;;10.57;54.20;101620.98;127216;1101;101507;-79
2021/10/28 19:05:14;;;;;;;93.53;48.53;;;;;;;10.55;54.60;101618.28;127313;1101;101821;-78
2021/10/28 19:07:46;;;;;;;86.83;46.93;;;;;;;10.52;54.56;101623.36;126343;1102;101557;-78
2021/10/28 19:10:18;;;;;;;95.60;53.43;;;;;;;10.47;54.29;101629.17;126347;1102;102738;-79